Aviation Digital Data Service (ADDS)

Output produced by METARs form (0753 UTC 23 April 2018)
found at http://aviationweather.gov/adds/metars/
 
KTHV 230653Z AUTO 00000KT 10SM CLR 03/01 A3039 RMK AO2 SLP293 T00330006
KTHV 230553Z AUTO 00000KT 10SM CLR 04/02 A3039 RMK AO2 SLP294 T00390017 10144 20039 50005
KTHV 230453Z AUTO 20003KT 10SM CLR 10/01 A3040 RMK AO2 SLP296 T01000011 401890022
KTHV 230353Z AUTO 18006KT 10SM CLR 12/02 A3038 RMK AO2 SLP291 T01170022
KTHV 230253Z AUTO 00000KT 10SM CLR 06/02 A3037 RMK AO2 SLP289 T00610022 51014
KTHV 230153Z AUTO 00000KT 10SM CLR 06/03 A3037 RMK AO2 SLP287 T00610028
KTHV 230053Z AUTO 00000KT 10SM CLR 09/02 A3036 RMK AO2 SLP283 T00940022
KTHV 222353Z AUTO 11003KT 10SM CLR 14/00 A3033 RMK AO2 SLP275 T01390000 10189 20139 53001
KTHV 222253Z AUTO 14005KT 10SM CLR 17/01 A3032 RMK AO2 SLP271 T01670006
KTHV 222153Z AUTO 10006KT 10SM CLR 18/00 A3032 RMK AO2 SLP272 T01780000
KTHV 222053Z AUTO 10006KT 10SM CLR 18/00 A3033 RMK AO2 SLP272 T01830000 56018
KTHV 221953Z AUTO VRB04KT 10SM CLR 18/00 A3034 RMK AO2 SLP276 T01830000
KTHV 221853Z AUTO VRB05KT 10SM CLR 17/M01 A3036 RMK AO2 SLP284 T01721011
KTHV 221753Z AUTO 00000KT 10SM CLR 17/M02 A3038 RMK AO2 SLP291 T01671022 10167 20072 56015
KTHV 221653Z AUTO 08003KT 10SM CLR 16/M02 A3039 RMK AO2 SLP295 T01561022
KTHV 221553Z AUTO 07005KT 10SM CLR 15/M03 A3041 RMK AO2 SLP301 T01501028
KTHV 221453Z AUTO 09007KT 10SM CLR 13/M04 A3043 RMK AO2 SLP306 T01331039 50001
KTHV 221353Z AUTO 10008KT 10SM CLR 12/M04 A3043 RMK AO2 SLP306 T01221044
KTHV 221253Z AUTO 08004KT 10SM CLR 11/M02 A3043 RMK AO2 SLP310 T01111022
KTHV 221153Z AUTO 00000KT 10SM FEW075 07/03 A3042 RMK AO2 SLP306 T00720033 10072 20022 53012
KTHV 221053Z AUTO 00000KT 10SM CLR 03/01 A3041 RMK AO2 SLP301 T00280006
KTHV 220953Z AUTO 00000KT 10SM CLR 03/02 A3039 RMK AO2 SLP296 T00280017
KTHV 220853Z AUTO 00000KT 10SM CLR 04/02 A3038 RMK AO2 SLP293 T00440022 53004
KTHV 220753Z AUTO 00000KT 10SM CLR 05/02 A3037 RMK AO2 SLP289 T00500022
KTHV 220653Z AUTO 00000KT 10SM CLR 04/02 A3037 RMK AO2 SLP287 T00390022
KTHV 220553Z AUTO 00000KT 10SM CLR 04/01 A3037 RMK AO2 SLP290 T00390011 10106 20033 50007
KTHV 220453Z AUTO 00000KT 10SM CLR 06/02 A3038 RMK AO2 SLP293 T00560017 401501039
KTHV 220353Z AUTO 00000KT 10SM CLR 06/02 A3036 RMK AO2 SLP285 T00610017
KTHV 220253Z AUTO 00000KT 10SM CLR 09/M01 A3035 RMK AO2 SLP283 T00941006 51005
KTHV 220153Z AUTO 20006KT 10SM CLR 11/M01 A3035 RMK AO2 SLP281 T01061011
KTHV 220053Z AUTO 00000KT 10SM CLR 10/01 A3035 RMK AO2 SLP281 T01000011
KTHV 212353Z AUTO 00000KT 10SM CLR 10/01 A3034 RMK AO2 SLP279 T01000011 10150 20100 53002
KTHV 212253Z AUTO 00000KT 10SM CLR 14/M03 A3033 RMK AO2 SLP276 T01441033
KTHV 212153Z AUTO 31004KT 10SM CLR 14/M03 A3032 RMK AO2 SLP274 T01441028
KTHV 212053Z AUTO 00000KT 10SM CLR 15/M03 A3033 RMK AO2 SLP276 T01501028 56020